Time;durP1;ratioP1;P1;durP2;ratioP2;P2;SDS_P1;SDS_P2;PMS_P1;PMS_P2;Temp;Humidity;BMP_temperature;BMP_pressure;BME280_temperature;BME280_humidity;BME280_pressure;Samples;Min_cycle;Max_cycle;Signal;HPM_P1;HPM_P2
2022/10/20 00:00:52;;;;;;;14.32;12.88;;;4.90;99.90;;;;;;5020834;28;20033;-58
2022/10/20 00:03:18;;;;;;;14.43;13.00;;;4.90;99.90;;;;;;5023265;28;20030;-59
2022/10/20 00:05:44;;;;;;;13.20;12.18;;;4.80;99.90;;;;;;5015327;28;20441;-56
2022/10/20 00:08:09;;;;;;;22.77;13.50;;;4.80;99.90;;;;;;5019386;28;20112;-58
2022/10/20 00:10:35;;;;;;;13.70;12.40;;;4.70;99.90;;;;;;5019136;28;20030;-58
2022/10/20 00:13:00;;;;;;;13.43;12.10;;;4.70;99.90;;;;;;5022044;28;20025;-58
2022/10/20 00:15:26;;;;;;;16.88;12.77;;;4.70;99.90;;;;;;5020217;28;20441;-58
2022/10/20 00:17:53;;;;;;;16.00;12.70;;;4.60;99.90;;;;;;5018684;28;20032;-58
2022/10/20 00:20:18;;;;;;;13.13;12.02;;;4.60;99.90;;;;;;5019849;28;20050;-59
2022/10/20 00:22:44;;;;;;;13.15;11.95;;;4.60;99.90;;;;;;5023671;28;20127;-56
2022/10/20 00:25:10;;;;;;;12.88;11.68;;;4.60;99.90;;;;;;5018507;28;20030;-58
2022/10/20 00:27:35;;;;;;;12.35;11.23;;;4.50;99.90;;;;;;5019699;28;20029;-60
2022/10/20 00:30:01;;;;;;;12.70;11.38;;;4.50;99.90;;;;;;5019149;28;20026;-58
2022/10/20 00:32:28;;;;;;;12.68;11.48;;;4.50;99.90;;;;;;5020048;28;20619;-58
2022/10/20 00:34:54;;;;;;;13.48;12.27;;;4.50;99.90;;;;;;5022939;28;20435;-59
2022/10/20 00:37:20;;;;;;;15.52;13.93;;;4.50;99.90;;;;;;5022169;28;20533;-58
2022/10/20 00:39:45;;;;;;;15.93;13.13;;;4.50;99.90;;;;;;5020066;28;20026;-59
2022/10/20 00:42:15;;;;;;;13.57;12.38;;;4.50;99.90;;;;;;5017042;28;20490;-59
2022/10/20 00:44:48;;;;;;;10.57;9.65;;;4.40;99.90;;;;;;5017809;28;20516;-58
2022/10/20 00:47:43;;;;;;;11.90;9.25;;;4.40;99.90;;;;;;5021280;28;20030;-58
2022/10/20 00:50:22;;;;;;;12.88;9.15;;;4.30;99.90;;;;;;5019290;28;20052;-58
2022/10/20 00:52:48;;;;;;;10.52;9.57;;;4.30;99.90;;;;;;5019523;28;20026;-59
2022/10/20 00:55:22;;;;;;;9.88;8.98;;;4.20;99.90;;;;;;5015778;28;20072;-58
2022/10/20 00:57:50;;;;;;;10.13;7.65;;;4.20;99.90;;;;;;5018510;28;20030;-58
2022/10/20 01:00:17;;;;;;;12.15;11.05;;;4.10;99.90;;;;;;5019294;28;20045;-59
2022/10/20 01:02:43;;;;;;;18.15;10.60;;;4.10;99.90;;;;;;5018776;28;20113;-60
2022/10/20 01:05:09;;;;;;;15.90;11.80;;;4.10;99.90;;;;;;5019327;28;20565;-59
2022/10/20 01:07:35;;;;;;;79.28;12.10;;;4.10;99.90;;;;;;5035643;28;20386;-58
2022/10/20 01:10:03;;;;;;;74.90;10.15;;;4.00;99.90;;;;;;5018549;28;20037;-58
2022/10/20 01:12:34;;;;;;;26.67;8.73;;;4.00;99.90;;;;;;5016676;28;20150;-59
2022/10/20 01:15:24;;;;;;;42.38;9.20;;;4.00;99.90;;;;;;5019008;28;20125;-59
2022/10/20 01:18:10;;;;;;;18.42;8.77;;;3.90;99.90;;;;;;5021597;28;20038;-58
2022/10/20 01:21:03;;;;;;;9.02;8.10;;;3.90;99.90;;;;;;5017780;28;20020;-58
2022/10/20 01:23:37;;;;;;;10.80;9.05;;;3.90;99.90;;;;;;5018985;28;20022;-59
2022/10/20 01:26:06;;;;;;;10.25;9.40;;;3.90;99.90;;;;;;5022481;28;20088;-59
2022/10/20 01:29:12;;;;;;;9.68;8.98;;;3.90;99.90;;;;;;5020935;28;20117;-58
2022/10/20 01:32:15;;;;;;;10.25;9.02;;;3.80;99.90;;;;;;5016715;28;20041;-58
2022/10/20 01:35:04;;;;;;;20.13;8.00;;;3.70;99.90;;;;;;5019978;28;20040;-58
2022/10/20 01:37:46;;;;;;;47.08;8.32;;;3.70;99.90;;;;;;5019527;28;20033;-58
2022/10/20 01:40:20;;;;;;;81.10;9.15;;;3.60;99.90;;;;;;5019456;28;20034;-57
2022/10/20 01:42:49;;;;;;;18.02;7.70;;;3.50;99.90;;;;;;5016505;28;20116;-59
2022/10/20 01:45:18;;;;;;;48.65;9.82;;;3.50;99.90;;;;;;5014521;28;20037;-62
2022/10/20 01:47:45;;;;;;;21.30;10.90;;;3.50;99.90;;;;;;5015692;28;20025;-59
2022/10/20 01:50:13;;;;;;;20.17;11.18;;;3.50;99.90;;;;;;5023292;28;20048;-61
2022/10/20 01:52:38;;;;;;;28.00;12.00;;;3.50;99.90;;;;;;5020438;28;20053;-60
2022/10/20 01:55:13;;;;;;;22.48;12.77;;;3.50;99.90;;;;;;5013654;28;20069;-61
2022/10/20 01:57:53;;;;;;;16.30;13.23;;;3.50;99.90;;;;;;5018783;28;20089;-60
2022/10/20 02:00:19;;;;;;;15.40;13.60;;;3.50;99.90;;;;;;5025161;28;20029;-60
2022/10/20 02:03:21;;;;;;;13.70;11.98;;;3.60;99.90;;;;;;5019775;28;20572;-59
2022/10/20 02:06:16;;;;;;;14.30;13.00;;;3.70;99.90;;;;;;5023518;28;20057;-61
2022/10/20 02:08:54;;;;;;;12.95;11.82;;;3.70;99.90;;;;;;5018060;28;20497;-61
2022/10/20 02:11:50;;;;;;;12.55;11.45;;;3.60;99.90;;;;;;5020574;28;20466;-61
2022/10/20 02:14:18;;;;;;;12.88;9.73;;;3.60;99.90;;;;;;5039663;28;20044;-59
2022/10/20 02:16:48;;;;;;;12.40;10.38;;;3.60;99.90;;;;;;5039388;28;20029;-59
2022/10/20 02:19:18;;;;;;;12.75;11.60;;;3.50;99.90;;;;;;5033608;28;20067;-58
2022/10/20 02:21:45;;;;;;;12.45;11.10;;;3.50;99.90;;;;;;5033922;28;20183;-58
2022/10/20 02:24:13;;;;;;;11.07;10.18;;;3.50;99.90;;;;;;5020113;28;20021;-59
2022/10/20 02:26:39;;;;;;;10.18;9.38;;;3.50;99.90;;;;;;5038551;28;20032;-61
2022/10/20 02:29:14;;;;;;;10.52;9.73;;;3.50;99.90;;;;;;5038014;28;20086;-60
2022/10/20 02:31:42;;;;;;;10.75;9.95;;;3.50;99.90;;;;;;5041651;28;20052;-60
2022/10/20 02:34:07;;;;;;;9.55;8.82;;;3.50;99.90;;;;;;5038723;28;20460;-60
2022/10/20 02:36:38;;;;;;;11.63;10.52;;;3.50;99.90;;;;;;5043676;28;20028;-61
2022/10/20 02:39:04;;;;;;;13.55;10.60;;;3.50;99.90;;;;;;5039112;28;20108;-59
2022/10/20 02:41:30;;;;;;;13.02;11.00;;;3.50;99.90;;;;;;5039244;28;20022;-58
2022/10/20 02:43:56;;;;;;;17.83;12.90;;;3.40;99.90;;;;;;5041993;28;20502;-58
2022/10/20 02:46:23;;;;;;;14.00;12.65;;;3.50;99.90;;;;;;5041201;28;20490;-60
2022/10/20 02:48:48;;;;;;;14.20;12.52;;;3.50;99.90;;;;;;5019947;28;20501;-61
2022/10/20 02:51:16;;;;;;;12.55;11.40;;;3.50;99.90;;;;;;5037797;28;20037;-61
2022/10/20 02:53:42;;;;;;;12.25;11.15;;;3.50;99.90;;;;;;5040701;28;20018;-61
2022/10/20 02:56:08;;;;;;;12.55;11.45;;;3.50;99.90;;;;;;5026687;28;20420;-61
2022/10/20 02:58:33;;;;;;;12.52;9.80;;;3.50;99.90;;;;;;5045268;28;20036;-60
2022/10/20 03:00:59;;;;;;;92.43;10.95;;;3.50;99.90;;;;;;5041616;28;20493;-60
2022/10/20 03:03:25;;;;;;;41.25;10.13;;;3.50;99.90;;;;;;5040023;28;20034;-59
2022/10/20 03:05:50;;;;;;;203.05;13.02;;;3.40;99.90;;;;;;5044116;28;20141;-60
2022/10/20 03:08:16;;;;;;;36.30;8.00;;;3.30;99.90;;;;;;5041940;28;20040;-60
2022/10/20 03:10:42;;;;;;;25.05;8.27;;;3.30;99.90;;;;;;5036648;28;20068;-61
2022/10/20 03:13:09;;;;;;;7.80;7.20;;;3.20;99.90;;;;;;5041933;28;20501;-60
2022/10/20 03:15:35;;;;;;;7.40;6.75;;;3.10;99.90;;;;;;5040300;28;20037;-61
2022/10/20 03:18:00;;;;;;;7.43;6.82;;;3.10;99.90;;;;;;5042139;28;20029;-60
2022/10/20 03:20:26;;;;;;;8.75;7.80;;;3.10;99.90;;;;;;5036370;28;20032;-60
2022/10/20 03:22:51;;;;;;;9.38;8.68;;;3.00;99.90;;;;;;5037349;28;20037;-60
2022/10/20 03:25:17;;;;;;;10.65;9.65;;;3.00;99.90;;;;;;5038388;28;20029;-60
2022/10/20 03:27:43;;;;;;;11.63;10.63;;;3.00;99.90;;;;;;5040600;28;20095;-60
2022/10/20 03:30:09;;;;;;;12.82;11.45;;;3.10;99.90;;;;;;5039818;28;20022;-60
2022/10/20 03:32:35;;;;;;;11.93;10.95;;;3.10;99.90;;;;;;5038321;28;20025;-60
2022/10/20 03:35:00;;;;;;;11.18;10.15;;;3.00;99.90;;;;;;5038606;28;20029;-58
2022/10/20 03:37:26;;;;;;;10.50;9.60;;;3.00;99.90;;;;;;5044010;28;20444;-58
2022/10/20 03:39:51;;;;;;;10.85;9.77;;;3.00;99.90;;;;;;5038936;28;20459;-59
2022/10/20 03:42:17;;;;;;;10.10;9.05;;;3.00;99.90;;;;;;5040166;28;20544;-57
2022/10/20 03:44:45;;;;;;;15.07;8.52;;;3.00;99.90;;;;;;5042277;28;20041;-58
2022/10/20 03:47:12;;;;;;;10.30;9.38;;;3.00;99.90;;;;;;5040560;28;20096;-58
2022/10/20 03:49:38;;;;;;;9.95;9.15;;;2.90;99.90;;;;;;5038886;28;20505;-59
2022/10/20 03:52:04;;;;;;;11.00;10.15;;;2.90;99.90;;;;;;5037304;28;20064;-56
2022/10/20 03:54:30;;;;;;;9.68;8.88;;;2.90;99.90;;;;;;5037145;28;20401;-60
2022/10/20 03:56:56;;;;;;;9.63;8.82;;;2.90;99.90;;;;;;5040299;28;20120;-61
2022/10/20 03:59:21;;;;;;;10.07;8.35;;;2.90;99.90;;;;;;5041632;28;20825;-61
2022/10/20 04:01:47;;;;;;;49.05;9.90;;;2.80;99.90;;;;;;5040432;28;20547;-61
2022/10/20 04:04:13;;;;;;;106.88;9.75;;;2.80;99.90;;;;;;5040529;28;20075;-61
2022/10/20 04:06:39;;;;;;;149.40;9.40;;;2.70;99.90;;;;;;5039582;28;20061;-60
2022/10/20 04:09:05;;;;;;;57.15;6.90;;;2.70;99.90;;;;;;5038930;28;20131;-60
2022/10/20 04:11:31;;;;;;;55.30;7.60;;;2.60;99.90;;;;;;5037062;28;20025;-61
2022/10/20 04:13:57;;;;;;;6.22;5.60;;;2.50;99.90;;;;;;5043173;28;20516;-60
2022/10/20 04:16:23;;;;;;;7.95;7.25;;;2.50;99.90;;;;;;5036941;28;20038;-61
2022/10/20 04:18:51;;;;;;;11.27;10.27;;;2.40;99.90;;;;;;5038866;28;20036;-61
2022/10/20 04:21:16;;;;;;;10.48;9.60;;;2.40;99.90;;;;;;5037302;28;20025;-61
2022/10/20 04:23:42;;;;;;;9.90;8.98;;;2.50;99.90;;;;;;5040291;28;20028;-60
2022/10/20 04:26:13;;;;;;;9.55;8.73;;;2.50;99.90;;;;;;5038575;28;20032;-60
2022/10/20 04:28:39;;;;;;;16.25;7.88;;;2.60;99.90;;;;;;5039645;28;20030;-61
2022/10/20 04:31:05;;;;;;;8.27;7.47;;;2.60;99.90;;;;;;5041404;28;20067;-60
2022/10/20 04:33:31;;;;;;;12.70;9.52;;;2.50;99.90;;;;;;5040957;28;20025;-60
2022/10/20 04:36:02;;;;;;;15.77;8.68;;;2.60;99.90;;;;;;5039198;28;20045;-59
2022/10/20 04:38:32;;;;;;;9.30;7.85;;;2.50;99.90;;;;;;5040090;28;20148;-60
2022/10/20 04:41:00;;;;;;;8.85;8.07;;;2.50;99.90;;;;;;5036054;28;20726;-61
2022/10/20 04:43:26;;;;;;;9.00;8.10;;;2.50;99.90;;;;;;5034469;28;20033;-60
2022/10/20 04:45:57;;;;;;;11.52;9.10;;;2.40;99.90;;;;;;5039348;28;20087;-60
2022/10/20 04:48:23;;;;;;;11.02;10.10;;;2.40;99.90;;;;;;5037832;28;20077;-60
2022/10/20 04:51:09;;;;;;;10.85;9.95;;;2.40;99.90;;;;;;5025760;28;20051;-60
2022/10/20 04:53:35;;;;;;;11.80;10.80;;;2.40;99.90;;;;;;5037998;28;20087;-61
2022/10/20 04:56:02;;;;;;;11.55;10.35;;;2.40;99.90;;;;;;5038886;28;20067;-61
2022/10/20 04:58:28;;;;;;;11.95;10.52;;;2.40;99.90;;;;;;5037897;28;20017;-60
2022/10/20 05:00:58;;;;;;;11.80;10.38;;;2.40;99.90;;;;;;5036888;28;20026;-61
2022/10/20 05:03:24;;;;;;;12.05;10.88;;;2.40;99.90;;;;;;5040195;28;20028;-61
2022/10/20 05:05:50;;;;;;;11.88;10.82;;;2.40;99.90;;;;;;5039203;28;20045;-61
2022/10/20 05:08:15;;;;;;;14.00;12.48;;;2.40;99.90;;;;;;5038642;28;20799;-60
2022/10/20 05:10:42;;;;;;;13.98;11.18;;;2.40;99.90;;;;;;5021325;28;20079;-60
2022/10/20 05:13:08;;;;;;;12.93;11.80;;;2.40;99.90;;;;;;5037052;28;20071;-60
2022/10/20 05:15:33;;;;;;;17.77;13.07;;;2.50;99.90;;;;;;5020592;28;20492;-60
2022/10/20 05:17:59;;;;;;;14.43;13.13;;;2.50;99.90;;;;;;5039162;28;20366;-61
2022/10/20 05:20:25;;;;;;;14.90;12.88;;;2.50;99.90;;;;;;5036858;28;20094;-60
2022/10/20 05:22:50;;;;;;;13.05;11.85;;;2.50;99.90;;;;;;5034835;28;20025;-60
2022/10/20 05:25:16;;;;;;;13.77;12.52;;;2.50;99.90;;;;;;5035437;28;20045;-59
2022/10/20 05:27:42;;;;;;;14.75;13.25;;;2.60;99.90;;;;;;5039338;28;20554;-60
2022/10/20 05:30:08;;;;;;;14.25;12.75;;;2.60;99.90;;;;;;5038973;28;20510;-60
2022/10/20 05:32:33;;;;;;;16.48;12.90;;;2.60;99.90;;;;;;5033277;28;20160;-60
2022/10/20 05:34:59;;;;;;;16.60;14.80;;;2.60;99.90;;;;;;5036892;28;20103;-61
2022/10/20 05:37:24;;;;;;;17.55;14.07;;;2.60;99.90;;;;;;5039889;28;20037;-60
2022/10/20 05:39:50;;;;;;;17.08;13.93;;;2.70;99.90;;;;;;5036691;28;20052;-59
2022/10/20 05:42:16;;;;;;;14.13;12.65;;;2.70;99.90;;;;;;5037596;28;20095;-60
2022/10/20 05:44:41;;;;;;;13.95;12.68;;;2.70;99.90;;;;;;5039943;28;20029;-60
2022/10/20 05:47:07;;;;;;;14.52;13.20;;;2.70;99.90;;;;;;5040685;28;20431;-60
2022/10/20 05:49:32;;;;;;;14.82;13.32;;;2.80;99.90;;;;;;5038817;28;20029;-61
2022/10/20 05:51:58;;;;;;;14.43;13.10;;;2.80;99.90;;;;;;5039538;28;20409;-60
2022/10/20 05:54:24;;;;;;;14.77;12.88;;;2.80;99.90;;;;;;5037955;28;20493;-60
2022/10/20 05:56:49;;;;;;;13.90;12.60;;;2.80;99.90;;;;;;5039562;28;20698;-60
2022/10/20 05:59:15;;;;;;;15.18;13.65;;;2.80;99.90;;;;;;5038003;28;20040;-58
2022/10/20 06:01:47;;;;;;;15.73;13.45;;;2.80;99.90;;;;;;5034026;28;20440;-60
2022/10/20 06:04:15;;;;;;;16.05;14.43;;;2.90;99.90;;;;;;5041013;28;20124;-61
2022/10/20 06:06:42;;;;;;;21.52;15.85;;;2.90;99.90;;;;;;5041556;28;20030;-59
2022/10/20 06:09:09;;;;;;;16.38;14.77;;;3.00;99.90;;;;;;5038688;28;20034;-61
2022/10/20 06:11:35;;;;;;;13.85;12.60;;;3.10;99.90;;;;;;5038381;28;20053;-60
2022/10/20 06:14:01;;;;;;;12.35;11.27;;;3.10;99.90;;;;;;5044032;28;20116;-62
2022/10/20 06:16:28;;;;;;;11.07;9.98;;;3.00;99.90;;;;;;5044382;28;20450;-60
2022/10/20 06:18:56;;;;;;;11.40;8.95;;;2.90;99.90;;;;;;5042484;28;20037;-60
2022/10/20 06:21:28;;;;;;;10.27;9.00;;;2.90;99.90;;;;;;5043807;28;20087;-61
2022/10/20 06:23:54;;;;;;;11.07;9.98;;;2.80;99.90;;;;;;5040804;28;20029;-60
2022/10/20 06:26:24;;;;;;;11.80;10.70;;;2.80;99.90;;;;;;5042811;28;20086;-60
2022/10/20 06:28:53;;;;;;;11.60;10.15;;;2.80;99.90;;;;;;5037274;28;20062;-60
2022/10/20 06:31:24;;;;;;;12.75;11.43;;;2.80;99.90;;;;;;5046198;28;20068;-60
2022/10/20 06:33:50;;;;;;;15.23;12.40;;;2.90;99.90;;;;;;5039973;28;20117;-60
2022/10/20 06:36:17;;;;;;;13.00;11.70;;;2.90;99.90;;;;;;5044318;28;20135;-60
2022/10/20 06:38:43;;;;;;;13.63;12.32;;;3.00;99.90;;;;;;5043887;28;20031;-60
2022/10/20 06:41:12;;;;;;;17.02;12.63;;;3.00;99.90;;;;;;5043142;28;20039;-60
2022/10/20 06:43:38;;;;;;;12.02;11.05;;;3.00;99.90;;;;;;5039011;28;20026;-61
2022/10/20 06:46:09;;;;;;;19.50;12.95;;;3.10;99.90;;;;;;5040633;28;20193;-61
2022/10/20 06:48:34;;;;;;;11.15;10.15;;;3.10;99.90;;;;;;5041877;28;20572;-60
2022/10/20 06:51:04;;;;;;;11.68;10.55;;;3.20;99.90;;;;;;5043525;28;20164;-60
2022/10/20 06:53:32;;;;;;;11.18;10.02;;;3.20;99.90;;;;;;5047155;28;20013;-61
2022/10/20 06:56:10;;;;;;;11.32;10.23;;;3.30;99.90;;;;;;5042251;28;20041;-60
2022/10/20 06:58:38;;;;;;;12.43;9.68;;;3.30;99.90;;;;;;5038675;28;20392;-59
2022/10/20 07:01:05;;;;;;;11.13;10.15;;;3.40;99.90;;;;;;5042717;28;20033;-61
2022/10/20 07:03:32;;;;;;;12.25;11.05;;;3.50;99.90;;;;;;5047671;28;20037;-60
2022/10/20 07:05:58;;;;;;;12.80;10.88;;;3.60;99.90;;;;;;5042130;28;20033;-61
2022/10/20 07:08:27;;;;;;;12.07;11.07;;;3.70;99.90;;;;;;5040173;28;20034;-60
2022/10/20 07:11:09;;;;;;;15.88;11.80;;;3.80;99.90;;;;;;5038991;28;20118;-61
2022/10/20 07:13:36;;;;;;;12.10;10.85;;;3.90;99.90;;;;;;5043874;28;20040;-58
2022/10/20 07:16:03;;;;;;;14.88;10.98;;;4.10;99.90;;;;;;5042496;28;20172;-58
2022/10/20 07:18:29;;;;;;;12.75;11.45;;;4.20;99.90;;;;;;5041173;28;20021;-58
2022/10/20 07:21:01;;;;;;;12.30;11.07;;;4.30;99.90;;;;;;5039284;28;20025;-58
2022/10/20 07:23:29;;;;;;;12.02;10.88;;;4.40;99.90;;;;;;5038060;28;20021;-59
2022/10/20 07:26:01;;;;;;;12.45;11.18;;;4.40;99.90;;;;;;5040565;28;20504;-58
2022/10/20 07:28:27;;;;;;;14.77;11.35;;;4.50;99.90;;;;;;5040792;28;20041;-58
2022/10/20 07:30:52;;;;;;;12.18;10.85;;;4.70;99.90;;;;;;5042131;28;20065;-58
2022/10/20 07:33:18;;;;;;;14.02;12.60;;;4.80;99.90;;;;;;5045572;28;20049;-59
2022/10/20 07:35:44;;;;;;;18.88;14.13;;;4.90;99.90;;;;;;5041758;28;20032;-60
2022/10/20 07:38:09;;;;;;;15.75;14.32;;;5.10;99.90;;;;;;5044419;28;20021;-58
2022/10/20 07:40:35;;;;;;;15.88;14.30;;;5.30;99.90;;;;;;5046328;28;20063;-57
2022/10/20 07:43:00;;;;;;;16.52;14.73;;;5.40;99.90;;;;;;5048554;28;20119;-58
2022/10/20 07:45:26;;;;;;;21.08;16.27;;;5.60;99.90;;;;;;5044348;28;20037;-58
2022/10/20 07:47:52;;;;;;;30.25;18.75;;;5.80;99.90;;;;;;5044082;28;20036;-58
2022/10/20 07:50:17;;;;;;;27.10;19.05;;;6.00;99.90;;;;;;5037107;28;20033;-58
2022/10/20 07:52:43;;;;;;;23.02;17.88;;;6.20;99.90;;;;;;5039801;28;20057;-59
2022/10/20 07:55:09;;;;;;;19.30;17.02;;;6.40;99.90;;;;;;5033292;28;20030;-58
2022/10/20 07:57:34;;;;;;;20.38;16.38;;;6.60;99.90;;;;;;5038510;28;20029;-57
2022/10/20 08:00:00;;;;;;;17.10;15.25;;;6.70;99.90;;;;;;5043048;28;20115;-58
2022/10/20 08:02:26;;;;;;;18.88;16.70;;;6.90;99.90;;;;;;5038614;28;20503;-59
2022/10/20 08:04:52;;;;;;;23.65;16.67;;;7.00;99.90;;;;;;5041092;28;20468;-60
2022/10/20 08:07:17;;;;;;;16.38;14.68;;;7.20;99.90;;;;;;5041764;28;20030;-60
2022/10/20 08:09:43;;;;;;;17.60;14.15;;;7.40;99.90;;;;;;5039472;28;20380;-59
2022/10/20 08:12:08;;;;;;;15.02;13.57;;;7.50;99.90;;;;;;5034676;28;20056;-59
2022/10/20 08:14:36;;;;;;;14.65;13.18;;;7.70;99.90;;;;;;5003085;28;20017;-59
2022/10/20 08:17:02;;;;;;;13.30;12.02;;;7.80;99.90;;;;;;5035181;28;20016;-59
2022/10/20 08:19:28;;;;;;;13.27;11.98;;;8.00;99.90;;;;;;5037339;28;20025;-59
2022/10/20 08:21:54;;;;;;;12.65;11.43;;;8.10;99.90;;;;;;5027353;28;20106;-60
2022/10/20 08:24:19;;;;;;;12.82;11.63;;;8.20;99.90;;;;;;5041113;28;20187;-60
2022/10/20 08:26:45;;;;;;;11.95;10.95;;;8.30;99.90;;;;;;5039104;28;20020;-59
2022/10/20 08:29:11;;;;;;;12.75;11.23;;;8.40;99.90;;;;;;5043991;28;20017;-59
2022/10/20 08:31:37;;;;;;;11.23;10.10;;;8.50;99.90;;;;;;5038853;28;20517;-60
2022/10/20 08:34:03;;;;;;;13.23;9.98;;;8.60;99.90;;;;;;5040975;28;20033;-59
2022/10/20 08:36:29;;;;;;;14.05;10.65;;;8.70;99.90;;;;;;5039777;28;20060;-59
2022/10/20 08:38:58;;;;;;;11.85;10.65;;;8.80;99.90;;;;;;5042266;28;20444;-59
2022/10/20 08:41:27;;;;;;;10.65;9.68;;;9.00;99.90;;;;;;5038939;28;20138;-59
2022/10/20 08:43:54;;;;;;;10.40;9.40;;;9.20;99.90;;;;;;5039261;28;20104;-59
2022/10/20 08:46:27;;;;;;;13.70;10.80;;;9.40;99.90;;;;;;5037840;28;20033;-59
2022/10/20 08:48:53;;;;;;;10.82;9.88;;;9.50;99.90;;;;;;5035443;28;20042;-60
2022/10/20 08:51:22;;;;;;;10.10;8.65;;;9.70;99.90;;;;;;5038699;28;20047;-60
2022/10/20 08:53:51;;;;;;;15.25;9.50;;;9.90;99.90;;;;;;5039631;28;20102;-60
2022/10/20 08:56:21;;;;;;;9.95;9.13;;;10.00;99.90;;;;;;5039120;28;20033;-59
2022/10/20 08:58:47;;;;;;;9.00;8.20;;;10.10;99.90;;;;;;5038724;28;20627;-60
2022/10/20 09:01:39;;;;;;;8.98;8.07;;;10.40;99.90;;;;;;5035430;28;20040;-60
2022/10/20 09:04:18;;;;;;;6.63;5.97;;;11.10;99.90;;;;;;5038005;28;20129;-61
2022/10/20 09:06:49;;;;;;;6.10;5.60;;;12.10;99.90;;;;;;5042052;28;20029;-59
2022/10/20 09:09:17;;;;;;;5.40;4.95;;;12.80;99.90;;;;;;5036394;28;20175;-61
2022/10/20 09:11:43;;;;;;;5.60;5.10;;;13.30;99.90;;;;;;5036860;28;20024;-60
2022/10/20 09:14:13;;;;;;;6.88;5.18;;;13.50;99.90;;;;;;5042714;28;20417;-61
2022/10/20 09:16:40;;;;;;;4.63;4.25;;;14.30;99.90;;;;;;5037795;28;20108;-59
2022/10/20 09:19:19;;;;;;;5.03;4.50;;;15.30;99.90;;;;;;5037113;28;20029;-61
2022/10/20 09:21:52;;;;;;;4.75;4.20;;;15.90;99.90;;;;;;5036524;28;20057;-59
2022/10/20 09:24:19;;;;;;;7.25;4.53;;;15.90;99.90;;;;;;5038837;28;20030;-60
2022/10/20 09:26:47;;;;;;;7.10;4.70;;;16.10;99.90;;;;;;5038466;28;20501;-59
2022/10/20 09:29:18;;;;;;;4.15;3.47;;;16.60;99.90;;;;;;5037921;28;20037;-60
2022/10/20 09:31:45;;;;;;;8.23;4.25;;;16.90;99.90;;;;;;5040812;28;20087;-59
2022/10/20 09:34:21;;;;;;;3.85;3.42;;;16.20;99.90;;;;;;5038418;28;20140;-60
2022/10/20 09:36:49;;;;;;;4.80;4.18;;;15.30;99.90;;;;;;5040774;28;20033;-61
2022/10/20 09:39:25;;;;;;;4.25;3.85;;;14.80;99.90;;;;;;5035344;28;20065;-61
2022/10/20 09:42:00;;;;;;;4.15;3.78;;;14.60;99.90;;;;;;5036735;28;20072;-60
2022/10/20 09:44:26;;;;;;;3.85;3.55;;;14.80;99.90;;;;;;5039338;28;20403;-60
2022/10/20 09:46:53;;;;;;;3.78;3.30;;;15.00;99.90;;;;;;5039535;28;20056;-60
2022/10/20 09:49:29;;;;;;;7.22;4.20;;;15.20;99.90;;;;;;5041769;28;20040;-60
2022/10/20 09:51:56;;;;;;;4.13;3.72;;;15.10;99.90;;;;;;5040097;28;20033;-60
2022/10/20 09:54:24;;;;;;;3.88;3.00;;;15.30;99.90;;;;;;5036035;28;20022;-60
2022/10/20 09:56:51;;;;;;;4.20;3.80;;;15.60;99.90;;;;;;5039305;28;20600;-60
2022/10/20 09:59:33;;;;;;;3.35;3.05;;;15.90;99.90;;;;;;5043443;28;20030;-60
2022/10/20 10:02:21;;;;;;;3.28;3.00;;;16.10;99.90;;;;;;5038915;28;20041;-61
2022/10/20 10:04:49;;;;;;;3.60;3.08;;;16.10;99.90;;;;;;5029731;28;20033;-61
2022/10/20 10:07:34;;;;;;;6.20;3.20;;;15.90;99.90;;;;;;5032470;28;20529;-60
2022/10/20 10:10:22;;;;;;;3.28;2.97;;;15.80;99.90;;;;;;5038508;28;20025;-62
2022/10/20 10:12:52;;;;;;;3.78;2.95;;;16.00;99.90;;;;;;5038497;28;20401;-60
2022/10/20 10:15:29;;;;;;;4.03;3.30;;;16.10;99.90;;;;;;5039476;28;20026;-60
2022/10/20 10:17:55;;;;;;;5.38;2.63;;;16.00;99.90;;;;;;5039969;28;20504;-61
2022/10/20 10:20:32;;;;;;;5.63;2.70;;;15.90;99.90;;;;;;5041062;28;20029;-60
2022/10/20 10:23:28;;;;;;;4.38;2.83;;;15.80;99.90;;;;;;5018406;28;20038;-60
2022/10/20 10:25:54;;;;;;;3.40;2.35;;;15.80;99.90;;;;;;5030611;28;20266;-61
2022/10/20 10:28:32;;;;;;;3.63;2.75;;;15.70;99.90;;;;;;5041854;28;20114;-60
2022/10/20 10:31:05;;;;;;;3.00;2.55;;;15.70;99.90;;;;;;5036621;28;20048;-59
2022/10/20 10:33:32;;;;;;;3.85;2.72;;;15.70;99.90;;;;;;5032203;28;20031;-58
2022/10/20 10:36:00;;;;;;;3.35;2.40;;;15.70;99.90;;;;;;5034669;28;20033;-60
2022/10/20 10:38:27;;;;;;;5.45;3.00;;;15.70;99.90;;;;;;5036016;28;20437;-59
2022/10/20 10:41:10;;;;;;;4.75;3.30;;;15.80;99.90;;;;;;5040291;28;20123;-59
2022/10/20 10:43:42;;;;;;;2.80;2.53;;;15.80;99.90;;;;;;5039042;28;20033;-58
2022/10/20 10:46:18;;;;;;;3.40;2.80;;;15.70;99.90;;;;;;5037996;28;20090;-59
2022/10/20 10:49:19;;;;;;;3.90;3.45;;;15.60;99.90;;;;;;5038325;28;20405;-59
2022/10/20 10:51:53;;;;;;;3.05;2.55;;;15.30;99.90;;;;;;5042829;28;20083;-62
2022/10/20 10:54:27;;;;;;;3.38;3.08;;;15.10;99.90;;;;;;5038596;28;20651;-62
2022/10/20 10:56:55;;;;;;;2.90;2.60;;;15.10;99.90;;;;;;5045152;28;20033;-61
2022/10/20 10:59:22;;;;;;;2.40;2.20;;;15.00;99.90;;;;;;5043321;28;20025;-60
2022/10/20 11:01:53;;;;;;;5.55;2.40;;;14.90;99.90;;;;;;5043200;28;20136;-61
2022/10/20 11:04:38;;;;;;;;;;;15.00;99.90;;;;;;5049155;28;20386;-62
2022/10/20 11:07:08;;;;;;;8.27;2.78;;;15.20;99.90;;;;;;5037650;28;19923;-61
2022/10/20 11:10:09;;;;;;;4.57;2.50;;;15.30;99.90;;;;;;5043035;28;20025;-61
2022/10/20 11:13:06;;;;;;;4.55;2.30;;;15.40;99.90;;;;;;5040066;28;20091;-61
2022/10/20 11:15:57;;;;;;;5.00;2.28;;;15.30;99.90;;;;;;5039222;28;20044;-61
2022/10/20 11:18:57;;;;;;;6.65;2.03;;;15.30;99.90;;;;;;5043868;28;20062;-61
2022/10/20 11:21:27;;;;;;;3.00;2.45;;;15.50;99.90;;;;;;5043309;28;20029;-61
2022/10/20 11:23:56;;;;;;;4.55;2.85;;;15.50;99.90;;;;;;5037159;28;20210;-60
2022/10/20 11:26:31;;;;;;;3.97;3.05;;;15.50;99.90;;;;;;5045536;28;20140;-61
2022/10/20 11:28:58;;;;;;;4.93;2.28;;;15.60;99.90;;;;;;5043662;28;20404;-62
2022/10/20 11:31:30;;;;;;;4.43;2.38;;;15.60;99.90;;;;;;5042254;28;20574;-61
2022/10/20 11:34:05;;;;;;;4.68;2.53;;;15.60;99.60;;;;;;5043914;28;20061;-61
2022/10/20 11:36:40;;;;;;;2.72;2.13;;;15.60;99.90;;;;;;5045702;28;20040;-61
2022/10/20 11:39:15;;;;;;;2.33;1.98;;;15.60;99.90;;;;;;5042362;28;20091;-62
2022/10/20 11:41:49;;;;;;;3.95;2.38;;;15.70;95.40;;;;;;5042620;28;20033;-61
2022/10/20 11:44:26;;;;;;;4.38;2.50;;;15.70;97.40;;;;;;5041271;28;20051;-61
2022/10/20 11:47:01;;;;;;;3.63;2.00;;;15.80;99.90;;;;;;5040050;28;20505;-61
2022/10/20 11:49:27;;;;;;;3.80;2.28;;;16.00;93.30;;;;;;5040092;28;20041;-61
2022/10/20 11:51:56;;;;;;;3.42;2.25;;;15.90;99.90;;;;;;5040282;28;20029;-62
2022/10/20 11:54:36;;;;;;;3.65;2.00;;;16.00;99.90;;;;;;5040287;28;20738;-60
2022/10/20 11:57:28;;;;;;;3.45;2.38;;;16.00;99.90;;;;;;5040853;28;20124;-60
2022/10/20 12:00:19;;;;;;;1.83;1.73;;;15.80;99.90;;;;;;5039030;28;20064;-59
2022/10/20 12:03:06;;;;;;;6.70;2.22;;;15.60;99.90;;;;;;5037605;28;20117;-59
2022/10/20 12:05:54;;;;;;;3.75;2.17;;;15.50;94.90;;;;;;5042179;28;20416;-60
2022/10/20 12:08:46;;;;;;;3.13;2.28;;;15.40;99.90;;;;;;5038659;28;20017;-59
2022/10/20 12:11:35;;;;;;;;;;;15.30;99.90;;;;;;5039771;28;20520;-60
2022/10/20 12:14:12;;;;;;;4.97;2.03;;;15.50;99.90;;;;;;4987351;28;19970;-60
2022/10/20 12:16:53;;;;;;;3.17;2.10;;;15.80;99.90;;;;;;5041717;28;20064;-59
2022/10/20 12:19:39;;;;;;;3.42;2.10;;;16.10;99.90;;;;;;5040322;28;20489;-59
2022/10/20 12:22:13;;;;;;;3.63;2.05;;;16.30;99.90;;;;;;5039779;28;20637;-60
2022/10/20 12:24:41;;;;;;;3.72;2.53;;;16.40;99.90;;;;;;5037810;28;20443;-60
2022/10/20 12:27:07;;;;;;;3.17;2.40;;;16.30;99.90;;;;;;5044729;28;20025;-60
2022/10/20 12:29:33;;;;;;;3.50;2.58;;;16.20;97.10;;;;;;5029544;28;20427;-60
2022/10/20 12:32:22;;;;;;;5.40;2.60;;;16.10;99.90;;;;;;5037488;28;20026;-59
2022/10/20 12:34:54;;;;;;;3.13;2.50;;;15.90;99.90;;;;;;5039071;28;20095;-61
2022/10/20 12:37:25;;;;;;;;;;;15.80;99.90;;;;;;5035206;28;20543;-59
2022/10/20 12:39:54;;;;;;;2.50;2.30;;;15.80;99.90;;;;;;5040584;28;19932;-59
2022/10/20 12:42:27;;;;;;;4.30;2.80;;;15.80;99.90;;;;;;5039002;28;20040;-60
2022/10/20 12:44:54;;;;;;;3.92;2.75;;;15.80;99.90;;;;;;5038143;28;20047;-59
2022/10/20 12:47:26;;;;;;;3.17;2.83;;;15.80;99.90;;;;;;5033741;28;20436;-59
2022/10/20 12:49:56;;;;;;;5.05;3.00;;;15.80;99.90;;;;;;5039934;28;20657;-59
2022/10/20 12:52:34;;;;;;;3.85;2.55;;;15.80;99.90;;;;;;5039683;28;20029;-59
2022/10/20 12:55:12;;;;;;;3.15;2.83;;;15.80;99.90;;;;;;5040284;28;20158;-59
2022/10/20 12:57:40;;;;;;;3.40;2.60;;;15.80;99.90;;;;;;5040289;28;20037;-59
2022/10/20 13:00:26;;;;;;;7.30;3.20;;;15.70;99.90;;;;;;5047258;28;20388;-61